sensor_id;sensor_type;location;lat;lon;timestamp;P1;durP1;ratioP1;P2;durP2;ratioP2
5702;SDS011;2876;51.738;10.050;2023-04-24T00:02:45;3.10;;;1.20;;
5702;SDS011;2876;51.738;10.050;2023-04-24T00:08:48;1.50;;;1.27;;
5702;SDS011;2876;51.738;10.050;2023-04-24T00:14:50;1.40;;;1.30;;
5702;SDS011;2876;51.738;10.050;2023-04-24T00:20:52;1.20;;;1.10;;
5702;SDS011;2876;51.738;10.050;2023-04-24T00:26:54;1.20;;;1.10;;
5702;SDS011;2876;51.738;10.050;2023-04-24T00:32:56;1.57;;;1.47;;
5702;SDS011;2876;51.738;10.050;2023-04-24T00:38:59;3.87;;;1.67;;
5702;SDS011;2876;51.738;10.050;2023-04-24T00:45:01;1.93;;;1.43;;
5702;SDS011;2876;51.738;10.050;2023-04-24T00:51:04;1.53;;;1.33;;
5702;SDS011;2876;51.738;10.050;2023-04-24T00:57:06;3.50;;;1.20;;
5702;SDS011;2876;51.738;10.050;2023-04-24T01:03:08;1.63;;;1.40;;
5702;SDS011;2876;51.738;10.050;2023-04-24T01:09:12;1.73;;;1.00;;
5702;SDS011;2876;51.738;10.050;2023-04-24T01:15:15;1.87;;;1.17;;
5702;SDS011;2876;51.738;10.050;2023-04-24T01:21:17;1.40;;;1.27;;
5702;SDS011;2876;51.738;10.050;2023-04-24T01:27:22;1.40;;;1.30;;
5702;SDS011;2876;51.738;10.050;2023-04-24T01:33:24;1.93;;;1.17;;
5702;SDS011;2876;51.738;10.050;2023-04-24T01:39:26;1.43;;;1.33;;
5702;SDS011;2876;51.738;10.050;2023-04-24T01:45:29;4.23;;;1.13;;
5702;SDS011;2876;51.738;10.050;2023-04-24T01:51:31;1.00;;;1.00;;
5702;SDS011;2876;51.738;10.050;2023-04-24T01:57:33;1.73;;;1.20;;
5702;SDS011;2876;51.738;10.050;2023-04-24T02:03:36;1.03;;;1.00;;
5702;SDS011;2876;51.738;10.050;2023-04-24T02:09:38;5.80;;;1.30;;
5702;SDS011;2876;51.738;10.050;2023-04-24T02:15:40;1.53;;;0.90;;
5702;SDS011;2876;51.738;10.050;2023-04-24T02:21:42;1.37;;;1.27;;
5702;SDS011;2876;51.738;10.050;2023-04-24T02:27:44;1.40;;;1.30;;
5702;SDS011;2876;51.738;10.050;2023-04-24T02:33:46;1.23;;;1.13;;
5702;SDS011;2876;51.738;10.050;2023-04-24T02:39:48;1.20;;;1.10;;
5702;SDS011;2876;51.738;10.050;2023-04-24T02:45:50;5.60;;;1.30;;
5702;SDS011;2876;51.738;10.050;2023-04-24T02:51:52;1.23;;;1.13;;
5702;SDS011;2876;51.738;10.050;2023-04-24T02:57:54;6.57;;;1.30;;
5702;SDS011;2876;51.738;10.050;2023-04-24T03:03:56;7.30;;;1.27;;
5702;SDS011;2876;51.738;10.050;2023-04-24T03:09:58;2.10;;;0.93;;
5702;SDS011;2876;51.738;10.050;2023-04-24T03:16:00;1.23;;;1.13;;
5702;SDS011;2876;51.738;10.050;2023-04-24T03:22:03;1.30;;;0.90;;
5702;SDS011;2876;51.738;10.050;2023-04-24T03:28:05;2.30;;;1.17;;
5702;SDS011;2876;51.738;10.050;2023-04-24T03:34:06;2.13;;;1.33;;
5702;SDS011;2876;51.738;10.050;2023-04-24T03:40:08;2.00;;;1.07;;
5702;SDS011;2876;51.738;10.050;2023-04-24T03:46:11;1.20;;;1.10;;
5702;SDS011;2876;51.738;10.050;2023-04-24T03:52:13;4.00;;;1.40;;
5702;SDS011;2876;51.738;10.050;2023-04-24T03:58:14;2.70;;;1.37;;
5702;SDS011;2876;51.738;10.050;2023-04-24T04:04:17;4.07;;;1.20;;
5702;SDS011;2876;51.738;10.050;2023-04-24T04:10:19;2.37;;;1.50;;
5702;SDS011;2876;51.738;10.050;2023-04-24T04:16:21;3.20;;;1.50;;
5702;SDS011;2876;51.738;10.050;2023-04-24T04:22:23;4.03;;;1.30;;
5702;SDS011;2876;51.738;10.050;2023-04-24T04:28:25;2.90;;;1.33;;
5702;SDS011;2876;51.738;10.050;2023-04-24T04:34:27;3.03;;;1.53;;
5702;SDS011;2876;51.738;10.050;2023-04-24T04:40:30;1.60;;;1.40;;
5702;SDS011;2876;51.738;10.050;2023-04-24T04:46:32;2.60;;;1.30;;
5702;SDS011;2876;51.738;10.050;2023-04-24T04:52:35;4.40;;;1.67;;
5702;SDS011;2876;51.738;10.050;2023-04-24T04:58:37;1.93;;;1.70;;
5702;SDS011;2876;51.738;10.050;2023-04-24T05:04:39;3.10;;;1.70;;
5702;SDS011;2876;51.738;10.050;2023-04-24T05:10:41;1.70;;;1.60;;
5702;SDS011;2876;51.738;10.050;2023-04-24T05:16:43;2.17;;;1.67;;
5702;SDS011;2876;51.738;10.050;2023-04-24T05:22:45;2.00;;;1.47;;
5702;SDS011;2876;51.738;10.050;2023-04-24T05:28:47;1.97;;;1.50;;
5702;SDS011;2876;51.738;10.050;2023-04-24T05:34:49;1.43;;;1.33;;
5702;SDS011;2876;51.738;10.050;2023-04-24T05:40:51;5.10;;;1.37;;
5702;SDS011;2876;51.738;10.050;2023-04-24T05:46:53;2.03;;;1.40;;
5702;SDS011;2876;51.738;10.050;2023-04-24T05:52:56;1.40;;;1.23;;
5702;SDS011;2876;51.738;10.050;2023-04-24T05:59:03;2.33;;;1.87;;
5702;SDS011;2876;51.738;10.050;2023-04-24T06:05:05;1.37;;;1.27;;
5702;SDS011;2876;51.738;10.050;2023-04-24T06:11:07;1.40;;;1.27;;
5702;SDS011;2876;51.738;10.050;2023-04-24T06:17:09;2.90;;;1.57;;
5702;SDS011;2876;51.738;10.050;2023-04-24T06:23:11;1.60;;;1.50;;
5702;SDS011;2876;51.738;10.050;2023-04-24T06:29:13;1.47;;;1.20;;
5702;SDS011;2876;51.738;10.050;2023-04-24T06:35:15;1.63;;;1.40;;
5702;SDS011;2876;51.738;10.050;2023-04-24T06:41:17;1.40;;;1.30;;
5702;SDS011;2876;51.738;10.050;2023-04-24T06:47:19;2.37;;;1.30;;
5702;SDS011;2876;51.738;10.050;2023-04-24T06:53:21;1.63;;;1.50;;
5702;SDS011;2876;51.738;10.050;2023-04-24T06:59:24;4.03;;;1.90;;
5702;SDS011;2876;51.738;10.050;2023-04-24T07:05:26;3.17;;;1.77;;
5702;SDS011;2876;51.738;10.050;2023-04-24T07:11:29;2.20;;;1.83;;
5702;SDS011;2876;51.738;10.050;2023-04-24T07:17:31;2.90;;;1.40;;
5702;SDS011;2876;51.738;10.050;2023-04-24T07:23:33;2.30;;;1.50;;
5702;SDS011;2876;51.738;10.050;2023-04-24T07:29:35;2.00;;;1.70;;
5702;SDS011;2876;51.738;10.050;2023-04-24T07:35:37;2.90;;;1.87;;
5702;SDS011;2876;51.738;10.050;2023-04-24T07:41:39;2.60;;;1.70;;
5702;SDS011;2876;51.738;10.050;2023-04-24T07:47:42;2.37;;;2.03;;
5702;SDS011;2876;51.738;10.050;2023-04-24T07:53:46;2.70;;;2.40;;
5702;SDS011;2876;51.738;10.050;2023-04-24T07:59:48;3.13;;;2.47;;
5702;SDS011;2876;51.738;10.050;2023-04-24T08:05:50;2.87;;;2.50;;
5702;SDS011;2876;51.738;10.050;2023-04-24T08:11:52;3.53;;;3.17;;
5702;SDS011;2876;51.738;10.050;2023-04-24T08:17:55;3.67;;;3.30;;
5702;SDS011;2876;51.738;10.050;2023-04-24T08:23:59;2.83;;;2.63;;
5702;SDS011;2876;51.738;10.050;2023-04-24T08:30:01;3.80;;;2.57;;
5702;SDS011;2876;51.738;10.050;2023-04-24T08:36:05;3.40;;;3.10;;
5702;SDS011;2876;51.738;10.050;2023-04-24T08:42:08;4.13;;;3.23;;
5702;SDS011;2876;51.738;10.050;2023-04-24T08:48:12;3.53;;;2.47;;
5702;SDS011;2876;51.738;10.050;2023-04-24T08:54:30;4.60;;;2.53;;
5702;SDS011;2876;51.738;10.050;2023-04-24T09:00:34;2.73;;;2.53;;
5702;SDS011;2876;51.738;10.050;2023-04-24T09:06:39;4.77;;;2.23;;
5702;SDS011;2876;51.738;10.050;2023-04-24T09:12:41;2.23;;;2.03;;
5702;SDS011;2876;51.738;10.050;2023-04-24T09:18:45;3.60;;;2.43;;
5702;SDS011;2876;51.738;10.050;2023-04-24T09:24:47;2.67;;;2.47;;
5702;SDS011;2876;51.738;10.050;2023-04-24T09:30:55;2.57;;;2.30;;
5702;SDS011;2876;51.738;10.050;2023-04-24T09:37:29;3.60;;;2.50;;
5702;SDS011;2876;51.738;10.050;2023-04-24T09:43:31;2.20;;;2.00;;
5702;SDS011;2876;51.738;10.050;2023-04-24T09:49:34;2.07;;;1.90;;
5702;SDS011;2876;51.738;10.050;2023-04-24T09:55:39;3.07;;;2.50;;
5702;SDS011;2876;51.738;10.050;2023-04-24T10:01:46;3.27;;;2.60;;
5702;SDS011;2876;51.738;10.050;2023-04-24T10:07:50;2.60;;;2.40;;
5702;SDS011;2876;51.738;10.050;2023-04-24T10:13:52;7.37;;;3.37;;
5702;SDS011;2876;51.738;10.050;2023-04-24T10:19:56;4.40;;;3.33;;
5702;SDS011;2876;51.738;10.050;2023-04-24T10:26:01;3.73;;;3.43;;
5702;SDS011;2876;51.738;10.050;2023-04-24T10:32:06;2.73;;;2.53;;
5702;SDS011;2876;51.738;10.050;2023-04-24T10:38:09;6.53;;;2.70;;
5702;SDS011;2876;51.738;10.050;2023-04-24T10:44:15;3.20;;;2.63;;
5702;SDS011;2876;51.738;10.050;2023-04-24T10:50:17;3.13;;;2.70;;
5702;SDS011;2876;51.738;10.050;2023-04-24T10:56:21;3.07;;;2.77;;
5702;SDS011;2876;51.738;10.050;2023-04-24T11:02:37;3.53;;;2.80;;
5702;SDS011;2876;51.738;10.050;2023-04-24T11:08:45;2.23;;;2.07;;
5702;SDS011;2876;51.738;10.050;2023-04-24T11:21:09;8.80;;;7.93;;
5702;SDS011;2876;51.738;10.050;2023-04-24T11:27:18;3.73;;;2.40;;
5702;SDS011;2876;51.738;10.050;2023-04-24T11:33:22;2.87;;;2.30;;
5702;SDS011;2876;51.738;10.050;2023-04-24T11:39:24;2.23;;;1.70;;
5702;SDS011;2876;51.738;10.050;2023-04-24T11:45:29;1.50;;;1.40;;
5702;SDS011;2876;51.738;10.050;2023-04-24T11:51:32;1.20;;;0.93;;
5702;SDS011;2876;51.738;10.050;2023-04-24T11:57:58;1.77;;;1.60;;
5702;SDS011;2876;51.738;10.050;2023-04-24T12:04:01;2.97;;;1.30;;
5702;SDS011;2876;51.738;10.050;2023-04-24T12:10:04;1.97;;;1.87;;
5702;SDS011;2876;51.738;10.050;2023-04-24T12:16:07;2.37;;;1.80;;
5702;SDS011;2876;51.738;10.050;2023-04-24T12:22:09;1.53;;;1.43;;
5702;SDS011;2876;51.738;10.050;2023-04-24T12:28:11;1.43;;;1.33;;
5702;SDS011;2876;51.738;10.050;2023-04-24T12:34:18;1.27;;;1.17;;
5702;SDS011;2876;51.738;10.050;2023-04-24T12:40:21;0.70;;;0.70;;
5702;SDS011;2876;51.738;10.050;2023-04-24T12:46:26;0.60;;;0.60;;
5702;SDS011;2876;51.738;10.050;2023-04-24T12:52:29;1.60;;;0.83;;
5702;SDS011;2876;51.738;10.050;2023-04-24T12:58:31;0.80;;;0.80;;
5702;SDS011;2876;51.738;10.050;2023-04-24T13:04:33;1.00;;;1.00;;
5702;SDS011;2876;51.738;10.050;2023-04-24T13:10:35;1.10;;;0.87;;
5702;SDS011;2876;51.738;10.050;2023-04-24T13:16:37;0.80;;;0.80;;
5702;SDS011;2876;51.738;10.050;2023-04-24T13:22:39;0.80;;;0.80;;
5702;SDS011;2876;51.738;10.050;2023-04-24T13:28:41;0.80;;;0.80;;
5702;SDS011;2876;51.738;10.050;2023-04-24T13:34:43;0.70;;;0.70;;
5702;SDS011;2876;51.738;10.050;2023-04-24T13:40:45;0.70;;;0.70;;
5702;SDS011;2876;51.738;10.050;2023-04-24T13:46:47;0.80;;;0.80;;
5702;SDS011;2876;51.738;10.050;2023-04-24T13:52:52;0.93;;;0.80;;
5702;SDS011;2876;51.738;10.050;2023-04-24T13:58:55;1.20;;;0.97;;
5702;SDS011;2876;51.738;10.050;2023-04-24T14:04:57;0.67;;;0.67;;
5702;SDS011;2876;51.738;10.050;2023-04-24T14:11:00;1.40;;;1.20;;
5702;SDS011;2876;51.738;10.050;2023-04-24T14:17:04;0.80;;;0.80;;
5702;SDS011;2876;51.738;10.050;2023-04-24T14:23:07;3.10;;;2.23;;
5702;SDS011;2876;51.738;10.050;2023-04-24T14:29:08;2.30;;;1.60;;
5702;SDS011;2876;51.738;10.050;2023-04-24T14:35:15;1.93;;;1.33;;
5702;SDS011;2876;51.738;10.050;2023-04-24T14:41:17;1.50;;;1.40;;
5702;SDS011;2876;51.738;10.050;2023-04-24T14:47:19;1.70;;;1.60;;
5702;SDS011;2876;51.738;10.050;2023-04-24T14:53:22;1.60;;;1.50;;
5702;SDS011;2876;51.738;10.050;2023-04-24T14:59:25;2.83;;;1.57;;
5702;SDS011;2876;51.738;10.050;2023-04-24T15:05:27;3.37;;;1.87;;
5702;SDS011;2876;51.738;10.050;2023-04-24T15:11:29;2.90;;;2.30;;
5702;SDS011;2876;51.738;10.050;2023-04-24T15:17:31;3.57;;;2.10;;
5702;SDS011;2876;51.738;10.050;2023-04-24T15:23:33;7.37;;;2.80;;
5702;SDS011;2876;51.738;10.050;2023-04-24T15:29:35;3.30;;;2.57;;
5702;SDS011;2876;51.738;10.050;2023-04-24T15:35:37;4.53;;;2.40;;
5702;SDS011;2876;51.738;10.050;2023-04-24T15:41:39;6.83;;;3.33;;
5702;SDS011;2876;51.738;10.050;2023-04-24T15:47:41;3.57;;;3.07;;
5702;SDS011;2876;51.738;10.050;2023-04-24T15:53:43;5.90;;;4.00;;
5702;SDS011;2876;51.738;10.050;2023-04-24T15:59:47;4.27;;;3.43;;
5702;SDS011;2876;51.738;10.050;2023-04-24T16:05:49;4.60;;;4.00;;
5702;SDS011;2876;51.738;10.050;2023-04-24T16:11:53;8.80;;;3.60;;
5702;SDS011;2876;51.738;10.050;2023-04-24T16:17:55;4.10;;;3.00;;
5702;SDS011;2876;51.738;10.050;2023-04-24T16:23:58;4.00;;;3.30;;
5702;SDS011;2876;51.738;10.050;2023-04-24T16:30:00;5.17;;;3.20;;
5702;SDS011;2876;51.738;10.050;2023-04-24T16:36:03;4.90;;;2.40;;
5702;SDS011;2876;51.738;10.050;2023-04-24T16:42:07;6.40;;;3.20;;
5702;SDS011;2876;51.738;10.050;2023-04-24T16:48:09;6.07;;;3.50;;
5702;SDS011;2876;51.738;10.050;2023-04-24T16:54:11;2.67;;;2.20;;
5702;SDS011;2876;51.738;10.050;2023-04-24T17:00:13;13.20;;;5.00;;
5702;SDS011;2876;51.738;10.050;2023-04-24T17:06:16;4.97;;;3.80;;
5702;SDS011;2876;51.738;10.050;2023-04-24T17:12:18;8.83;;;4.40;;
5702;SDS011;2876;51.738;10.050;2023-04-24T17:18:20;15.37;;;6.90;;
5702;SDS011;2876;51.738;10.050;2023-04-24T17:24:22;14.40;;;7.83;;
5702;SDS011;2876;51.738;10.050;2023-04-24T17:30:24;7.53;;;3.70;;
5702;SDS011;2876;51.738;10.050;2023-04-24T17:36:26;4.87;;;2.90;;
5702;SDS011;2876;51.738;10.050;2023-04-24T17:42:28;6.27;;;3.03;;
5702;SDS011;2876;51.738;10.050;2023-04-24T17:48:30;5.33;;;3.63;;
5702;SDS011;2876;51.738;10.050;2023-04-24T17:54:32;4.07;;;3.27;;
5702;SDS011;2876;51.738;10.050;2023-04-24T18:00:35;5.67;;;3.03;;
5702;SDS011;2876;51.738;10.050;2023-04-24T18:06:37;7.70;;;2.27;;
5702;SDS011;2876;51.738;10.050;2023-04-24T18:12:39;6.60;;;3.00;;
5702;SDS011;2876;51.738;10.050;2023-04-24T18:18:41;4.77;;;2.87;;
5702;SDS011;2876;51.738;10.050;2023-04-24T18:24:43;2.73;;;2.53;;
5702;SDS011;2876;51.738;10.050;2023-04-24T18:30:46;4.70;;;3.30;;
5702;SDS011;2876;51.738;10.050;2023-04-24T18:36:48;2.83;;;2.53;;
5702;SDS011;2876;51.738;10.050;2023-04-24T18:42:49;3.67;;;3.27;;
5702;SDS011;2876;51.738;10.050;2023-04-24T18:48:51;3.27;;;2.93;;
5702;SDS011;2876;51.738;10.050;2023-04-24T18:54:53;7.33;;;3.90;;
5702;SDS011;2876;51.738;10.050;2023-04-24T19:00:55;6.70;;;4.77;;
5702;SDS011;2876;51.738;10.050;2023-04-24T19:06:58;4.40;;;4.00;;
5702;SDS011;2876;51.738;10.050;2023-04-24T19:12:59;6.03;;;3.70;;
5702;SDS011;2876;51.738;10.050;2023-04-24T19:19:02;7.90;;;3.80;;
5702;SDS011;2876;51.738;10.050;2023-04-24T19:25:06;6.00;;;3.70;;
5702;SDS011;2876;51.738;10.050;2023-04-24T19:31:08;4.93;;;3.73;;
5702;SDS011;2876;51.738;10.050;2023-04-24T19:37:10;4.93;;;3.70;;
5702;SDS011;2876;51.738;10.050;2023-04-24T19:43:13;6.60;;;3.30;;
5702;SDS011;2876;51.738;10.050;2023-04-24T19:49:15;7.07;;;3.67;;
5702;SDS011;2876;51.738;10.050;2023-04-24T19:55:17;5.20;;;3.83;;
5702;SDS011;2876;51.738;10.050;2023-04-24T20:01:19;8.83;;;4.20;;
5702;SDS011;2876;51.738;10.050;2023-04-24T20:07:21;8.70;;;3.50;;
5702;SDS011;2876;51.738;10.050;2023-04-24T20:13:24;4.60;;;3.70;;
5702;SDS011;2876;51.738;10.050;2023-04-24T20:19:28;7.20;;;3.70;;
5702;SDS011;2876;51.738;10.050;2023-04-24T20:25:30;4.37;;;3.20;;
5702;SDS011;2876;51.738;10.050;2023-04-24T20:31:32;4.37;;;3.40;;
5702;SDS011;2876;51.738;10.050;2023-04-24T20:37:34;4.03;;;3.67;;
5702;SDS011;2876;51.738;10.050;2023-04-24T20:43:37;10.23;;;4.37;;
5702;SDS011;2876;51.738;10.050;2023-04-24T20:49:39;5.73;;;3.87;;
5702;SDS011;2876;51.738;10.050;2023-04-24T20:55:41;6.23;;;4.33;;
5702;SDS011;2876;51.738;10.050;2023-04-24T21:01:43;4.53;;;4.13;;
5702;SDS011;2876;51.738;10.050;2023-04-24T21:07:45;7.20;;;5.17;;
5702;SDS011;2876;51.738;10.050;2023-04-24T21:13:47;6.30;;;5.40;;
5702;SDS011;2876;51.738;10.050;2023-04-24T21:19:50;9.20;;;4.47;;
5702;SDS011;2876;51.738;10.050;2023-04-24T21:25:52;7.23;;;4.60;;
5702;SDS011;2876;51.738;10.050;2023-04-24T21:31:54;4.17;;;3.60;;
5702;SDS011;2876;51.738;10.050;2023-04-24T21:37:56;7.90;;;4.87;;
5702;SDS011;2876;51.738;10.050;2023-04-24T21:43:58;4.83;;;4.30;;
5702;SDS011;2876;51.738;10.050;2023-04-24T21:50:00;5.40;;;4.10;;
5702;SDS011;2876;51.738;10.050;2023-04-24T21:56:02;4.70;;;4.30;;
5702;SDS011;2876;51.738;10.050;2023-04-24T22:02:04;6.50;;;4.67;;
5702;SDS011;2876;51.738;10.050;2023-04-24T22:08:06;8.70;;;4.87;;
5702;SDS011;2876;51.738;10.050;2023-04-24T22:14:08;6.20;;;4.50;;
5702;SDS011;2876;51.738;10.050;2023-04-24T22:20:11;9.10;;;4.83;;
5702;SDS011;2876;51.738;10.050;2023-04-24T22:26:13;9.10;;;4.60;;
5702;SDS011;2876;51.738;10.050;2023-04-24T22:32:15;5.53;;;4.07;;
5702;SDS011;2876;51.738;10.050;2023-04-24T22:38:17;9.00;;;4.50;;
5702;SDS011;2876;51.738;10.050;2023-04-24T22:44:19;8.60;;;3.97;;
5702;SDS011;2876;51.738;10.050;2023-04-24T22:50:22;9.10;;;3.53;;
5702;SDS011;2876;51.738;10.050;2023-04-24T22:56:25;6.80;;;3.50;;
5702;SDS011;2876;51.738;10.050;2023-04-24T23:02:27;10.47;;;4.40;;
5702;SDS011;2876;51.738;10.050;2023-04-24T23:08:29;14.60;;;4.63;;
5702;SDS011;2876;51.738;10.050;2023-04-24T23:14:31;8.27;;;4.50;;
5702;SDS011;2876;51.738;10.050;2023-04-24T23:20:34;8.93;;;4.20;;
5702;SDS011;2876;51.738;10.050;2023-04-24T23:26:36;15.33;;;4.90;;
5702;SDS011;2876;51.738;10.050;2023-04-24T23:32:38;8.33;;;4.20;;
5702;SDS011;2876;51.738;10.050;2023-04-24T23:38:40;20.93;;;4.60;;
5702;SDS011;2876;51.738;10.050;2023-04-24T23:44:50;14.47;;;4.80;;
5702;SDS011;2876;51.738;10.050;2023-04-24T23:50:52;14.33;;;5.33;;
5702;SDS011;2876;51.738;10.050;2023-04-24T23:56:54;8.80;;;4.30;;
